createdAt,value
2022-09-28T00:00:00.362Z,0.0
2022-09-28T00:05:00.318Z,0.0
2022-09-28T00:10:00.342Z,0.0
2022-09-28T00:15:00.325Z,1.8
2022-09-28T00:20:00.356Z,0.0
2022-09-28T00:25:00.287Z,0.0
2022-09-28T00:30:00.372Z,3.2
2022-09-28T00:35:00.300Z,2.2
2022-09-28T00:40:00.329Z,3.2
2022-09-28T00:45:00.362Z,3.6
2022-09-28T00:50:00.363Z,1.4
2022-09-28T00:55:00.347Z,5.0
2022-09-28T01:00:00.426Z,4.7
2022-09-28T01:05:00.286Z,2.2
2022-09-28T01:10:00.334Z,2.9
2022-09-28T01:15:00.331Z,5.8
2022-09-28T01:20:00.350Z,3.6
2022-09-28T01:25:00.289Z,0.0
2022-09-28T01:30:00.321Z,0.0
2022-09-28T01:35:00.291Z,4.3
2022-09-28T01:40:00.341Z,3.6
2022-09-28T01:45:00.357Z,4.3
2022-09-28T01:50:00.317Z,2.2
2022-09-28T01:55:00.288Z,5.0
2022-09-28T02:00:00.338Z,10.8
2022-09-28T02:05:00.381Z,6.1
2022-09-28T02:10:00.306Z,1.8
2022-09-28T02:15:00.362Z,4.7
2022-09-28T02:20:00.599Z,7.6
2022-09-28T02:25:00.305Z,2.9
2022-09-28T02:30:00.314Z,4.7
2022-09-28T02:35:00.312Z,2.2
2022-09-28T02:40:00.324Z,3.6
2022-09-28T02:45:00.313Z,3.2
2022-09-28T02:50:00.319Z,1.8
2022-09-28T02:55:00.311Z,5.4
2022-09-28T03:00:00.331Z,4.3
2022-09-28T03:05:00.314Z,3.2
2022-09-28T03:10:00.318Z,8.3
2022-09-28T03:15:00.300Z,1.8
2022-09-28T03:20:00.323Z,1.8
2022-09-28T03:25:00.319Z,6.5
2022-09-28T03:30:00.350Z,3.6
2022-09-28T03:35:00.313Z,0.0
2022-09-28T03:40:00.354Z,1.8
2022-09-28T03:45:00.324Z,0.0
2022-09-28T03:50:00.373Z,0.0
2022-09-28T03:55:00.298Z,1.8
2022-09-28T04:00:00.422Z,3.2
2022-09-28T04:05:00.350Z,2.2
2022-09-28T04:10:00.339Z,0.0
2022-09-28T04:15:00.427Z,0.0
2022-09-28T04:20:00.300Z,1.8
2022-09-28T04:25:00.316Z,0.0
2022-09-28T04:30:00.330Z,2.2
2022-09-28T04:35:00.356Z,2.2
2022-09-28T04:40:00.336Z,0.0
2022-09-28T04:45:00.305Z,1.4
2022-09-28T04:50:00.345Z,0.0
2022-09-28T04:55:00.362Z,2.9
2022-09-28T05:00:00.363Z,1.4
2022-09-28T05:05:00.308Z,1.4
2022-09-28T05:10:00.340Z,2.2
2022-09-28T05:15:00.309Z,2.5
2022-09-28T05:20:00.322Z,3.2
2022-09-28T05:25:00.375Z,3.6
2022-09-28T05:30:00.352Z,2.9
2022-09-28T05:35:00.309Z,3.2
2022-09-28T05:40:00.339Z,3.2
2022-09-28T05:45:00.326Z,1.4
2022-09-28T05:50:01.794Z,5.4
2022-09-28T05:55:00.288Z,2.5
2022-09-28T06:00:00.395Z,3.2
2022-09-28T06:05:00.355Z,5.0
2022-09-28T06:10:00.429Z,4.3
2022-09-28T06:15:00.338Z,0.0
2022-09-28T06:20:00.413Z,0.0
2022-09-28T06:25:00.317Z,1.4
2022-09-28T06:30:00.372Z,2.9
2022-09-28T06:35:00.343Z,4.3
2022-09-28T06:40:00.327Z,2.2
2022-09-28T06:45:00.317Z,0.0
2022-09-28T06:50:00.328Z,0.0
2022-09-28T06:55:00.556Z,2.5
2022-09-28T07:00:00.323Z,6.8
2022-09-28T07:05:00.315Z,2.5
2022-09-28T07:10:00.352Z,5.4
2022-09-28T07:15:00.317Z,7.6
2022-09-28T07:20:19.536Z,6.1
2022-09-28T07:25:00.283Z,6.5
2022-09-28T07:30:00.332Z,6.1
2022-09-28T07:35:00.303Z,6.1
2022-09-28T07:40:00.316Z,0.0
2022-09-28T07:45:00.328Z,0.0
2022-09-28T07:50:00.315Z,0.0
2022-09-28T07:55:07.620Z,0.0
2022-09-28T08:00:00.437Z,4.7
2022-09-28T08:05:00.301Z,1.4
2022-09-28T08:10:00.331Z,5.0
2022-09-28T08:15:00.399Z,0.0
2022-09-28T08:20:00.403Z,0.0
2022-09-28T08:25:00.300Z,2.2
2022-09-28T08:30:00.375Z,0.0
2022-09-28T08:35:00.307Z,5.0
2022-09-28T08:40:00.344Z,0.0
2022-09-28T08:45:00.388Z,7.2
2022-09-28T08:50:00.617Z,7.6
2022-09-28T08:55:00.336Z,2.2
2022-09-28T09:00:00.383Z,2.2
2022-09-28T09:05:00.354Z,9.7
2022-09-28T09:10:00.364Z,8.3
2022-09-28T09:15:00.389Z,4.0
2022-09-28T09:20:00.380Z,7.9
2022-09-28T09:25:00.372Z,12.2
2022-09-28T09:30:00.399Z,4.0
2022-09-28T09:35:00.334Z,9.4
2022-09-28T09:40:00.505Z,14.4
2022-09-28T09:45:00.346Z,4.3
2022-09-28T09:50:09.185Z,6.1
2022-09-28T09:55:00.334Z,6.8
2022-09-28T10:00:00.430Z,6.5
2022-09-28T10:05:00.330Z,4.3
2022-09-28T10:10:00.362Z,5.0
2022-09-28T10:15:00.340Z,4.7
2022-09-28T10:20:00.350Z,1.8
2022-09-28T10:25:00.336Z,1.8
2022-09-28T10:30:00.660Z,2.2
2022-09-28T10:35:00.316Z,5.0
2022-09-28T10:40:00.341Z,8.6
2022-09-28T10:45:00.367Z,4.7
2022-09-28T10:50:00.331Z,5.0
2022-09-28T10:55:00.337Z,17.3
2022-09-28T11:00:00.412Z,14.8
2022-09-28T11:05:00.317Z,13.7
2022-09-28T11:10:00.370Z,9.7
2022-09-28T11:15:00.341Z,14.0
2022-09-28T11:20:00.371Z,16.9
2022-09-28T11:25:00.335Z,14.8
2022-09-28T11:30:00.419Z,19.4
2022-09-28T11:35:00.838Z,8.3
2022-09-28T11:40:00.369Z,15.5
2022-09-28T11:45:00.362Z,23.0
2022-09-28T11:50:00.368Z,14.4
2022-09-28T11:55:00.383Z,12.2
2022-09-28T12:00:00.438Z,10.8
2022-09-28T12:05:00.496Z,10.8
2022-09-28T12:10:00.353Z,15.8
2022-09-28T12:15:00.331Z,16.9
2022-09-28T12:20:00.361Z,5.8
2022-09-28T12:25:00.345Z,8.3
2022-09-28T12:30:00.444Z,15.8
2022-09-28T12:35:00.388Z,7.6
2022-09-28T12:40:01.327Z,8.3
2022-09-28T12:45:00.449Z,15.8
2022-09-28T12:50:37.915Z,16.6
2022-09-28T12:55:00.537Z,14.8
2022-09-28T13:00:00.525Z,6.1
2022-09-28T13:05:00.319Z,14.0
2022-09-28T13:10:00.628Z,10.4
2022-09-28T13:15:00.317Z,14.8
2022-09-28T13:20:00.713Z,14.8
2022-09-28T13:25:00.399Z,7.2
2022-09-28T13:30:01.390Z,14.0
2022-09-28T13:35:00.370Z,17.3
2022-09-28T13:40:00.384Z,12.6
2022-09-28T13:45:00.401Z,0.0
2022-09-28T13:50:00.426Z,8.3
2022-09-28T13:55:00.640Z,5.4
2022-09-28T14:00:00.438Z,12.6
2022-09-28T14:05:00.354Z,4.0
2022-09-28T14:10:00.415Z,7.2
2022-09-28T14:15:00.353Z,10.1
2022-09-28T14:20:00.394Z,9.7
2022-09-28T14:25:00.346Z,8.3
2022-09-28T14:30:00.391Z,6.1
2022-09-28T14:35:00.340Z,15.1
2022-09-28T14:40:00.336Z,9.7
2022-09-28T14:45:07.661Z,10.1
2022-09-28T14:50:00.421Z,13.0
2022-09-28T14:55:00.350Z,11.9
2022-09-28T15:00:00.422Z,9.7
2022-09-28T15:05:00.833Z,10.4
2022-09-28T15:10:00.388Z,2.5
2022-09-28T15:15:00.402Z,7.6
2022-09-28T15:20:00.350Z,3.2
2022-09-28T15:25:03.300Z,6.1
2022-09-28T15:30:00.464Z,5.0
2022-09-28T15:35:00.337Z,4.7
2022-09-28T15:40:00.426Z,3.2
2022-09-28T15:45:00.360Z,4.7
2022-09-28T15:50:00.406Z,4.0
2022-09-28T15:55:00.401Z,2.9
2022-09-28T16:00:00.455Z,5.0
2022-09-28T16:05:00.345Z,3.2
2022-09-28T16:10:00.424Z,7.6
2022-09-28T16:15:00.385Z,5.0
2022-09-28T16:20:00.384Z,3.6
2022-09-28T16:25:00.362Z,3.6
2022-09-28T16:30:00.852Z,3.6
2022-09-28T16:35:00.335Z,4.7
2022-09-28T16:40:00.758Z,4.0
2022-09-28T16:45:00.356Z,2.5
2022-09-28T16:50:00.979Z,1.8
2022-09-28T16:55:00.309Z,1.4
2022-09-28T17:00:00.663Z,0.0
2022-09-28T17:05:00.314Z,0.0
2022-09-28T17:10:00.350Z,0.0
2022-09-28T17:15:00.330Z,0.0
2022-09-28T17:20:00.352Z,0.0
2022-09-28T17:25:00.330Z,0.0
2022-09-28T17:30:00.347Z,0.0
2022-09-28T17:35:24.477Z,0.0
2022-09-28T17:40:00.468Z,0.0
2022-09-28T17:45:00.324Z,2.2
2022-09-28T17:50:00.344Z,0.0
2022-09-28T17:55:00.291Z,0.0
2022-09-28T18:00:00.757Z,0.0
2022-09-28T18:05:00.323Z,0.0
2022-09-28T18:10:00.494Z,0.0
2022-09-28T18:15:00.356Z,0.0
2022-09-28T18:20:00.420Z,0.0
2022-09-28T18:25:00.349Z,0.0
2022-09-28T18:30:00.407Z,0.0
2022-09-28T18:35:00.312Z,0.0
2022-09-28T18:40:00.328Z,0.0
2022-09-28T18:45:00.339Z,0.0
2022-09-28T18:50:00.523Z,0.0
2022-09-28T18:55:00.328Z,0.0
2022-09-28T19:00:00.373Z,0.0
2022-09-28T19:05:00.309Z,0.0
2022-09-28T19:10:00.453Z,0.0
2022-09-28T19:15:00.369Z,0.0
2022-09-28T19:20:00.330Z,0.0
2022-09-28T19:25:00.356Z,0.0
2022-09-28T19:30:00.366Z,2.2
2022-09-28T19:35:00.337Z,1.8
2022-09-28T19:40:00.329Z,0.0
2022-09-28T19:45:00.315Z,0.0
2022-09-28T19:50:00.598Z,0.0
2022-09-28T19:55:00.296Z,0.0
2022-09-28T20:00:04.202Z,0.0
2022-09-28T20:05:00.331Z,0.0
2022-09-28T20:10:00.381Z,0.0
2022-09-28T20:15:00.376Z,1.8
2022-09-28T20:20:00.355Z,0.0
2022-09-28T20:25:00.334Z,0.0
2022-09-28T20:30:00.445Z,0.0
2022-09-28T20:35:00.292Z,0.0
2022-09-28T20:40:00.351Z,0.0
2022-09-28T20:45:00.324Z,1.4
2022-09-28T20:50:00.356Z,2.2
2022-09-28T20:55:00.321Z,3.6
2022-09-28T21:00:00.348Z,2.9
2022-09-28T21:05:00.296Z,2.5
2022-09-28T21:10:00.591Z,5.8
2022-09-28T21:15:06.382Z,3.2
2022-09-28T21:20:00.298Z,2.5
2022-09-28T21:25:00.290Z,1.8
2022-09-28T21:30:00.781Z,5.0
2022-09-28T21:35:00.381Z,1.4
2022-09-28T21:40:00.660Z,2.5
2022-09-28T21:45:00.310Z,5.8
2022-09-28T21:50:00.348Z,4.3
2022-09-28T21:55:00.347Z,2.9
2022-09-28T22:00:00.674Z,1.8
2022-09-28T22:05:00.350Z,4.3
2022-09-28T22:10:00.363Z,1.8
2022-09-28T22:15:00.315Z,1.8
2022-09-28T22:20:00.357Z,2.5
2022-09-28T22:25:00.323Z,0.0
2022-09-28T22:30:00.357Z,0.0
2022-09-28T22:35:00.322Z,0.0
2022-09-28T22:40:00.332Z,0.0
2022-09-28T22:45:00.323Z,0.0
2022-09-28T22:50:00.337Z,0.0
2022-09-28T22:55:00.319Z,0.0
2022-09-28T23:00:00.344Z,1.4
2022-09-28T23:05:00.305Z,0.0
2022-09-28T23:10:00.328Z,1.8
2022-09-28T23:15:00.300Z,1.4
2022-09-28T23:20:00.316Z,0.0
2022-09-28T23:25:00.290Z,2.5
2022-09-28T23:30:00.322Z,1.8
2022-09-28T23:35:00.300Z,2.2
2022-09-28T23:40:00.344Z,0.0
2022-09-28T23:45:00.329Z,0.0
2022-09-28T23:50:00.334Z,2.2
2022-09-28T23:55:00.351Z,2.5
